Cayuga, Indiana
Current Conditions -  °F | °C
As of 10:35 AM on Saturday 20 Dec 2014 (Local Time) from KDNV Reporting Station
Haze Haze  
Wind Chill: -3°   Ceiling: 7500
Heat Index:   Visibility: 5mi
Dew Point: -3°   Wind: 5mph
Humidity: 86%   Direction: 130°SE
Pressure: 30.28"   Gusts: NA
Location:  39.95°N, 87.46°W
Report Text: KDNV 201535Z AUTO 13004KT 5SM BR SCT026 OVC075 00/M02 A3028 RMK AO2 T10051025
Loading
Personal Weather Stations






























Interactive Weather Map New forecast layout! Learn more

10-Day Weather Forecast

Advertisements
Track Severe Weather on mobile